Domov               UVHVVR             MKGP            O straneh              
ZDRAVSTVENO VARSTVO RASTLIN
  MREŽA AGROMET. POSTAJ
 ► PROGNOSTIČNA OBVESTILA
AGROMETEOROLOŠKI PODATKI -
ARSO
OBVLADOVANJE TVEGANJ ZARADI
NEUGODNIH VREMENSKIH RAZMER
  ► NARAVNE NESREČE
  ► SUŠA/MOČA
  ► NAMAKANJE
  ► ŽLED (gozdarstvo)
KARTOGRAFSKI PRIKAZI
SPLETNE POVEZAVE
PROJEKTI IN PUBLIKACIJE

AGROMETEOROLOŠKA MREŽA: VREMENSKE POSTAJE IN FENOLOŠKA OPAZOVANJA

Pregled podatkov za lokacijo Višnjevik, meteorološka postaja 857246

Pregled senzorjev na lokaciji

ID Ime Zadnja
vrednost
Datum
zadnje
spremembe
Tip
senzorja
3902 Temperatura 2 m ( °C) 25,29 °C 27.6.2017 10:30 50YA
3903 Relativna vlaga 2 m (% RH) 66,43 % RH 27.6.2017 10:30 50YA
3904 Omočenost lista (U) 0 U 27.6.2017 10:30 A730WET
3906 Padavine 0.2 mm (mm) 0 mm 27.6.2017 10:30 Rain-O-Matic

Pregled podatkov zadnjih 24 ur

Zap.
št.
Datum in čas Višnjevik
Omočenost
lista
Padavine
0.2
mm
Relativna
vlaga
2
m
Temperatura
2
m
0 27.6.2017 09:30 0 0 65,11 24,96
1 27.6.2017 09:00 0 0 71,54 25,2
2 27.6.2017 08:30 0 0 65,85 26,41
3 27.6.2017 08:00 0 0 68,17 25,57
4 27.6.2017 07:30 0 0 69,91 24,17
5 27.6.2017 07:00 0 0 73,41 22,26
6 27.6.2017 06:30 0 0 78,61 20,03
7 27.6.2017 06:00 0 0 77,76 20,22
8 27.6.2017 05:30 0 0 76,56 20,22
9 27.6.2017 05:00 0 0 77,16 19,84
10 27.6.2017 04:30 0 0 79,16 19,52
11 27.6.2017 04:00 0 0 77,28 19,96
12 27.6.2017 03:30 0 0 75,35 20,25
13 27.6.2017 03:00 0 0 75,34 20,37
14 27.6.2017 02:30 0 0 76 20,32
15 27.6.2017 02:00 0 0 75,1 20,53
16 27.6.2017 01:30 0 0 75,55 20,48
17 27.6.2017 01:00 0 0 74,92 20,53
18 27.6.2017 00:30 0 0 74,86 20,44
19 27.6.2017 00:00 0 0 73,68 20,82
20 26.6.2017 23:30 0 0 71,65 21,18
21 26.6.2017 23:00 0 0 70,01 21,58
22 26.6.2017 22:30 0 0 69,46 21,63
23 26.6.2017 22:00 0 0 70,59 21,43
24 26.6.2017 21:30 0 0 67,98 21,9
25 26.6.2017 21:00 0 0 66,9 22,14
26 26.6.2017 20:30 0 0 68,6 22,44
27 26.6.2017 20:00 0 0 66,55 23,11
28 26.6.2017 19:30 0 0 60,99 24,84
29 26.6.2017 19:00 0 0 53,54 27,88
30 26.6.2017 18:30 0 0 50,95 29,25
31 26.6.2017 18:00 0 0 47,45 31,26
32 26.6.2017 17:30 0 0 44,11 32,21
33 26.6.2017 17:00 0 0 45,5 32,54
34 26.6.2017 16:30 0 0 45,85 32,19
35 26.6.2017 16:00 0 0 45,61 31,44
36 26.6.2017 15:30 0 0 48,4 31,53
37 26.6.2017 15:00 0 0 47,94 30,53
38 26.6.2017 14:30 0 0 52,87 30,12
39 26.6.2017 14:00 0 0 53,31 29,27
40 26.6.2017 13:30 0 0 54,99 28,84
41 26.6.2017 13:00 0 0 51,12 29,61
42 26.6.2017 12:30 0 0 50,66 29,05
43 26.6.2017 12:00 0 0 49,81 29,23
44 26.6.2017 11:30 0 0 56,07 29,46
45 26.6.2017 11:00 0 0 56,66 28,91
© 2011 Ministrstvo za kmetijstvo, gozdarstvo in prehrano. Vse pravice pridržane.